createdAt,value
2022-12-20T00:01:22.580Z,101708.59
2022-12-20T00:04:27.131Z,101713.03
2022-12-20T00:07:30.177Z,101703.28
2022-12-20T00:10:36.181Z,101713.03
2022-12-20T00:13:39.335Z,101698.88
2022-12-20T00:16:42.217Z,101696.28
2022-12-20T00:19:46.437Z,101695.38
2022-12-20T00:22:49.292Z,101693.56
2022-12-20T00:25:52.137Z,101692.72
2022-12-20T00:28:55.362Z,101691.78
2022-12-20T00:31:58.396Z,101687.34
2022-12-20T00:35:02.721Z,101700.69
2022-12-20T00:38:07.503Z,101695.38
2022-12-20T00:41:12.735Z,101690.97
2022-12-20T00:44:15.564Z,101690.06
2022-12-20T00:47:18.842Z,101694.50
2022-12-20T00:50:23.241Z,101681.22
2022-12-20T00:53:26.703Z,101679.50
2022-12-20T00:56:29.693Z,101680.38
2022-12-20T00:59:34.071Z,101700.75
2022-12-20T01:02:37.028Z,101697.16
2022-12-20T01:05:41.401Z,101698.94
2022-12-20T01:08:44.618Z,101696.28
2022-12-20T01:11:47.441Z,101696.28
2022-12-20T01:14:50.752Z,101690.97
2022-12-20T01:17:53.840Z,101693.63
2022-12-20T01:21:03.614Z,101690.97
2022-12-20T01:24:06.726Z,101691.84
2022-12-20T01:27:09.611Z,101690.09
2022-12-20T01:30:13.606Z,101681.22
2022-12-20T01:33:16.465Z,101682.13
2022-12-20T01:36:25.156Z,101675.94
2022-12-20T01:39:28.192Z,101668.84
2022-12-20T01:42:31.351Z,101675.03
2022-12-20T01:45:34.233Z,101671.50
2022-12-20T01:48:37.384Z,101674.13
2022-12-20T01:51:46.020Z,101673.19
2022-12-20T01:54:53.000Z,101664.34
2022-12-20T01:57:59.767Z,101668.81
2022-12-20T02:01:02.637Z,101661.75
2022-12-20T02:04:06.450Z,101665.28
2022-12-20T02:07:22.606Z,101668.81
2022-12-20T02:10:30.875Z,101667.06
2022-12-20T02:13:43.305Z,101672.38
2022-12-20T02:16:54.709Z,101659.09
2022-12-20T02:20:23.704Z,101658.19
2022-12-20T02:23:57.380Z,101650.22
2022-12-20T02:27:34.001Z,101670.53
2022-12-20T02:30:41.971Z,101658.19
2022-12-20T02:33:49.950Z,101653.72
2022-12-20T02:36:53.535Z,101654.59
2022-12-20T02:39:56.809Z,101655.53
2022-12-20T02:43:02.635Z,101643.97
2022-12-20T02:46:07.696Z,101633.34
2022-12-20T02:49:15.866Z,101643.09
2022-12-20T02:52:22.383Z,101641.31
2022-12-20T02:55:34.546Z,101640.44
2022-12-20T02:58:41.737Z,101644.84
2022-12-20T03:01:49.894Z,101639.53
2022-12-20T03:04:55.397Z,101630.69
2022-12-20T03:07:59.693Z,101627.16
2022-12-20T03:11:02.684Z,101617.41
2022-12-20T03:14:07.513Z,101608.56
2022-12-20T03:17:12.395Z,101606.78
2022-12-20T03:20:15.482Z,101596.16
2022-12-20T03:23:18.371Z,101603.25
2022-12-20T03:26:21.620Z,101602.31
2022-12-20T03:29:30.668Z,101606.75
2022-12-20T03:32:35.081Z,101609.41
2022-12-20T03:35:38.259Z,101602.34
2022-12-20T03:38:41.098Z,101603.25
2022-12-20T03:41:44.741Z,101616.47
2022-12-20T03:44:51.314Z,101614.69
2022-12-20T03:47:55.733Z,101619.06
2022-12-20T03:51:01.603Z,101601.41
2022-12-20T03:54:04.504Z,101608.44
2022-12-20T03:57:36.732Z,101624.38
2022-12-20T04:00:42.753Z,101612.84
2022-12-20T04:04:11.799Z,101624.38
2022-12-20T04:07:14.680Z,101620.81
2022-12-20T04:10:21.526Z,101620.81
2022-12-20T04:13:24.551Z,101624.38
2022-12-20T04:16:30.287Z,101618.16
2022-12-20T04:19:34.658Z,101621.72
2022-12-20T04:22:39.299Z,101620.81
2022-12-20T04:25:42.405Z,101613.75
2022-12-20T04:28:47.129Z,101618.19
2022-12-20T04:31:50.086Z,101623.50
2022-12-20T04:34:54.811Z,101614.69
2022-12-20T04:37:58.768Z,101599.66
2022-12-20T04:41:01.777Z,101599.69
2022-12-20T04:44:13.730Z,101597.03
2022-12-20T04:47:16.630Z,101590.84
2022-12-20T04:50:21.326Z,101596.16
2022-12-20T04:53:42.174Z,101609.44
2022-12-20T04:56:46.546Z,101589.13
2022-12-20T04:59:55.481Z,101581.16
2022-12-20T05:02:58.572Z,101584.66
2022-12-20T05:06:04.545Z,101585.59
2022-12-20T05:09:07.435Z,101578.53
2022-12-20T05:12:11.702Z,101571.44
2022-12-20T05:15:15.092Z,101574.09
2022-12-20T05:18:19.371Z,101582.06
2022-12-20T05:21:49.686Z,101576.75
2022-12-20T05:25:10.044Z,101574.09
2022-12-20T05:28:14.819Z,101574.09
2022-12-20T05:31:17.839Z,101582.06
2022-12-20T05:34:21.123Z,101589.13
2022-12-20T05:37:30.155Z,101590.84
2022-12-20T05:40:41.615Z,101579.34
2022-12-20T05:43:45.703Z,101580.22
2022-12-20T05:46:49.317Z,101574.91
2022-12-20T05:49:57.093Z,101581.09
2022-12-20T05:53:07.452Z,101570.50
2022-12-20T05:56:14.024Z,101569.59
2022-12-20T05:59:17.840Z,101574.03
2022-12-20T06:02:22.558Z,101576.69
2022-12-20T06:05:30.598Z,101567.00
2022-12-20T06:08:37.898Z,101573.19
2022-12-20T06:11:44.802Z,101582.88
2022-12-20T06:14:50.133Z,101589.97
2022-12-20T06:17:53.612Z,101589.13
2022-12-20T06:20:56.485Z,101589.13
2022-12-20T06:24:02.278Z,101585.59
2022-12-20T06:27:07.100Z,101568.78
2022-12-20T06:30:13.181Z,101570.56
2022-12-20T06:33:42.364Z,101590.09
2022-12-20T06:36:45.408Z,101593.63
2022-12-20T06:39:55.209Z,101598.06
2022-12-20T06:42:59.007Z,101595.41
2022-12-20T06:46:01.953Z,101606.03
2022-12-20T06:49:04.877Z,101619.31
2022-12-20T06:52:08.569Z,101616.66
2022-12-20T06:55:22.580Z,101611.34
2022-12-20T06:58:26.856Z,101602.44
2022-12-20T07:01:29.827Z,101598.00
2022-12-20T07:04:32.782Z,101619.19
2022-12-20T07:07:42.163Z,101621.00
2022-12-20T07:10:49.314Z,101611.22
2022-12-20T07:13:56.991Z,101609.44
2022-12-20T07:16:59.991Z,101604.13
2022-12-20T07:20:07.563Z,101606.78
2022-12-20T07:23:13.908Z,101605.00
2022-12-20T07:26:18.101Z,101606.78
2022-12-20T07:29:21.017Z,101608.56
2022-12-20T07:32:24.045Z,101611.22
2022-12-20T07:35:28.881Z,101619.19
2022-12-20T07:38:31.917Z,101624.50
2022-12-20T07:41:36.768Z,101621.84
2022-12-20T07:44:40.077Z,101630.69
2022-12-20T07:47:43.827Z,101631.56
2022-12-20T07:50:46.858Z,101622.72
2022-12-20T07:53:53.678Z,101623.66
2022-12-20T07:57:00.934Z,101629.88
2022-12-20T08:00:05.437Z,101627.22
2022-12-20T08:03:19.438Z,101644.03
2022-12-20T08:06:22.785Z,101632.53
2022-12-20T08:09:28.080Z,101627.22
2022-12-20T08:12:34.414Z,101620.13
2022-12-20T08:15:37.876Z,101623.66
2022-12-20T08:18:40.742Z,101621.03
2022-12-20T08:21:43.581Z,101621.00
2022-12-20T08:24:46.482Z,101626.31
2022-12-20T08:27:50.790Z,101621.00
2022-12-20T08:30:53.666Z,101622.78
2022-12-20T08:33:56.540Z,101616.59
2022-12-20T08:36:59.432Z,101618.38
2022-12-20T08:40:02.320Z,101613.94
2022-12-20T08:43:10.213Z,101619.25
2022-12-20T08:46:13.668Z,101619.25
2022-12-20T08:49:16.637Z,101614.81
2022-12-20T08:52:19.533Z,101616.53
2022-12-20T08:55:27.749Z,101616.53
2022-12-20T08:58:33.819Z,101622.72
2022-12-20T09:01:36.879Z,101608.56
2022-12-20T09:04:39.920Z,101602.41
2022-12-20T09:07:42.835Z,101609.50
2022-12-20T09:10:45.670Z,101613.94
2022-12-20T09:13:52.126Z,101615.72
2022-12-20T09:16:55.018Z,101601.56
2022-12-20T09:19:58.062Z,101601.56
2022-12-20T09:23:01.254Z,101605.97
2022-12-20T09:26:05.590Z,101602.41
2022-12-20T09:29:09.923Z,101602.41
2022-12-20T09:32:13.164Z,101588.25
2022-12-20T09:35:22.601Z,101599.75
2022-12-20T09:38:26.259Z,101582.00
2022-12-20T09:41:37.121Z,101587.31
2022-12-20T09:44:42.967Z,101586.47
2022-12-20T09:47:45.963Z,101583.81
2022-12-20T09:51:03.325Z,101582.88
2022-12-20T09:54:16.498Z,101569.59
2022-12-20T09:57:28.330Z,101574.03
2022-12-20T10:00:36.972Z,101569.59
2022-12-20T10:03:39.981Z,101571.38
2022-12-20T10:06:58.600Z,101573.09
2022-12-20T10:10:19.516Z,101570.44
2022-12-20T10:13:35.843Z,101569.56
2022-12-20T10:16:46.366Z,101560.75
2022-12-20T10:20:03.519Z,101566.06
2022-12-20T10:23:14.598Z,101563.41
2022-12-20T10:26:17.808Z,101564.28
2022-12-20T10:29:22.199Z,101553.66
2022-12-20T10:32:28.515Z,101551.00
2022-12-20T10:35:38.054Z,101560.75
2022-12-20T10:38:46.353Z,101540.38
2022-12-20T10:41:51.966Z,101536.00
2022-12-20T10:44:57.058Z,101532.41
2022-12-20T10:48:05.161Z,101540.38
2022-12-20T10:51:16.956Z,101520.06
2022-12-20T10:54:24.176Z,101521.84
2022-12-20T10:57:28.708Z,101512.09
2022-12-20T11:00:32.624Z,101503.28
2022-12-20T11:03:51.634Z,101509.47
2022-12-20T11:06:54.864Z,101491.75
2022-12-20T11:09:59.426Z,101484.69
2022-12-20T11:13:04.351Z,101478.47
2022-12-20T11:16:07.836Z,101476.69
2022-12-20T11:19:31.097Z,101469.63
2022-12-20T11:22:48.186Z,101459.84
2022-12-20T11:26:17.203Z,101467.81
2022-12-20T11:29:48.012Z,101463.38
2022-12-20T11:33:16.843Z,101442.13
2022-12-20T11:36:31.588Z,101437.69
2022-12-20T11:39:45.667Z,101436.81
2022-12-20T11:42:59.648Z,101436.81
2022-12-20T11:46:21.723Z,101438.56
2022-12-20T11:49:40.385Z,101440.28
2022-12-20T11:52:49.669Z,101427.00
2022-12-20T11:55:55.586Z,101429.66
2022-12-20T11:59:03.538Z,101412.81
2022-12-20T12:02:12.578Z,101423.38
2022-12-20T12:05:20.825Z,101417.19
2022-12-20T12:08:31.255Z,101406.56
2022-12-20T12:12:05.993Z,101421.63
2022-12-20T12:15:09.850Z,101408.41
2022-12-20T12:18:19.240Z,101403.09
2022-12-20T12:21:25.063Z,101412.00
2022-12-20T12:24:33.942Z,101406.69
2022-12-20T12:27:36.952Z,101412.91
2022-12-20T12:30:47.154Z,101420.88
2022-12-20T12:34:02.823Z,101423.47
2022-12-20T12:37:32.367Z,101404.03
2022-12-20T12:40:52.954Z,101396.06
2022-12-20T12:43:58.888Z,101395.13
2022-12-20T12:47:07.133Z,101387.22
2022-12-20T12:50:19.985Z,101368.63
2022-12-20T12:53:29.343Z,101358.91
2022-12-20T12:56:45.868Z,101351.81
2022-12-20T12:59:50.371Z,101352.75
2022-12-20T13:02:53.312Z,101352.75
2022-12-20T13:05:56.327Z,101339.47
2022-12-20T13:09:19.208Z,101347.38
2022-12-20T13:12:57.177Z,101335.88
2022-12-20T13:16:14.736Z,101337.63
2022-12-20T13:19:19.221Z,101334.03
2022-12-20T13:22:23.928Z,101326.06
2022-12-20T13:25:31.699Z,101337.56
2022-12-20T13:28:47.364Z,101345.53
2022-12-20T13:31:54.405Z,101343.78
2022-12-20T13:34:58.502Z,101345.59
2022-12-20T13:38:04.817Z,101338.47
2022-12-20T13:41:20.332Z,101324.34
2022-12-20T13:44:45.089Z,101324.34
2022-12-20T13:47:55.480Z,101333.16
2022-12-20T13:50:59.128Z,101333.13
2022-12-20T13:54:03.695Z,101348.19
2022-12-20T13:57:08.197Z,101349.97
2022-12-20T14:00:18.950Z,101349.06
2022-12-20T14:03:25.299Z,101350.84
2022-12-20T14:06:28.749Z,101342.00
2022-12-20T14:09:34.863Z,101344.66
2022-12-20T14:12:37.715Z,101342.94
2022-12-20T14:15:41.916Z,101332.31
2022-12-20T14:18:50.025Z,101332.31
2022-12-20T14:21:53.180Z,101321.72
2022-12-20T14:24:56.224Z,101321.72
2022-12-20T14:27:59.979Z,101321.69
2022-12-20T14:31:05.612Z,101326.13
2022-12-20T14:34:15.534Z,101335.81
2022-12-20T14:37:28.575Z,101322.53
2022-12-20T14:40:31.528Z,101305.75
2022-12-20T14:43:37.765Z,101295.13
2022-12-20T14:46:49.175Z,101289.81
2022-12-20T14:49:56.713Z,101300.44
2022-12-20T14:53:00.527Z,101295.13
2022-12-20T14:56:03.678Z,101295.97
2022-12-20T14:59:14.619Z,101293.38
2022-12-20T15:02:36.577Z,101287.16
2022-12-20T15:05:45.981Z,101274.78
2022-12-20T15:08:48.789Z,101294.19
2022-12-20T15:11:52.696Z,101284.50
2022-12-20T15:14:55.573Z,101280.03
2022-12-20T15:17:59.958Z,101295.94
2022-12-20T15:21:06.885Z,101289.81
2022-12-20T15:24:13.475Z,101290.63
2022-12-20T15:27:17.084Z,101287.09
2022-12-20T15:30:20.152Z,101285.34
2022-12-20T15:33:26.346Z,101279.19
2022-12-20T15:36:30.512Z,101279.13
2022-12-20T15:39:34.790Z,101282.66
2022-12-20T15:42:37.906Z,101275.59
2022-12-20T15:45:41.544Z,101283.50
2022-12-20T15:48:45.769Z,101271.09
2022-12-20T15:51:50.474Z,101271.09
2022-12-20T15:54:53.335Z,101262.25
2022-12-20T15:57:56.264Z,101249.00
2022-12-20T16:01:02.475Z,101248.16
2022-12-20T16:04:07.950Z,101245.50
2022-12-20T16:07:13.183Z,101254.34
2022-12-20T16:10:17.091Z,101264.97
2022-12-20T16:13:23.118Z,101256.13
2022-12-20T16:16:27.203Z,101255.22
2022-12-20T16:19:31.679Z,101246.47
2022-12-20T16:22:34.618Z,101238.44
2022-12-20T16:25:38.055Z,101232.25
2022-12-20T16:28:40.906Z,101233.09
2022-12-20T16:31:44.059Z,101238.44
2022-12-20T16:34:49.751Z,101240.22
2022-12-20T16:37:52.572Z,101225.16
2022-12-20T16:40:55.923Z,101221.69
2022-12-20T16:44:01.098Z,101228.75
2022-12-20T16:47:03.964Z,101229.66
2022-12-20T16:50:10.259Z,101222.63
2022-12-20T16:53:16.450Z,101225.28
2022-12-20T16:56:19.392Z,101227.94
2022-12-20T16:59:23.336Z,101219.91
2022-12-20T17:02:29.077Z,101204.84
2022-12-20T17:05:36.392Z,101220.78
2022-12-20T17:12:00.203Z,101217.19
2022-12-20T17:15:04.777Z,101231.41
2022-12-20T17:18:07.580Z,101228.75
2022-12-20T17:21:23.969Z,101238.44
2022-12-20T17:24:26.799Z,101245.50
2022-12-20T17:27:29.636Z,101244.63
2022-12-20T17:30:32.519Z,101227.75
2022-12-20T17:33:35.396Z,101229.56
2022-12-20T17:36:39.665Z,101229.50
2022-12-20T17:39:42.576Z,101215.34
2022-12-20T17:42:45.718Z,101211.78
2022-12-20T17:45:48.605Z,101215.25
2022-12-20T17:48:52.292Z,101214.38
2022-12-20T17:51:57.103Z,101220.59
2022-12-20T17:55:00.005Z,101238.34
2022-12-20T17:58:02.999Z,101248.06
2022-12-20T18:01:06.107Z,101260.47
2022-12-20T18:04:11.159Z,101252.53
2022-12-20T18:07:15.412Z,101254.28
2022-12-20T18:10:18.380Z,101249.91
2022-12-20T18:13:21.235Z,101229.56
2022-12-20T18:16:27.510Z,101225.16
2022-12-20T18:19:30.437Z,101216.31
2022-12-20T18:22:35.053Z,101212.75
2022-12-20T18:25:38.027Z,101213.63
2022-12-20T18:28:42.757Z,101214.53
2022-12-20T18:31:45.695Z,101217.19
2022-12-20T18:34:48.814Z,101217.19
2022-12-20T18:37:53.018Z,101220.78
2022-12-20T18:40:58.164Z,101215.47
2022-12-20T18:44:02.610Z,101212.84
2022-12-20T18:47:05.720Z,101201.38
2022-12-20T18:50:11.801Z,101204.03
2022-12-20T18:53:15.978Z,101203.09
2022-12-20T18:56:20.949Z,101203.09
2022-12-20T18:59:23.827Z,101198.66
2022-12-20T19:02:27.131Z,101197.78
2022-12-20T19:05:33.108Z,101198.59
2022-12-20T19:08:38.183Z,101192.41
2022-12-20T19:11:41.283Z,101206.56
2022-12-20T19:14:45.288Z,101200.38
2022-12-20T19:17:48.083Z,101200.38
2022-12-20T19:20:50.919Z,101196.88
2022-12-20T19:23:56.991Z,101202.19
2022-12-20T19:26:59.850Z,101194.22
2022-12-20T19:30:02.713Z,101192.41
2022-12-20T19:33:05.762Z,101184.44
2022-12-20T19:36:10.010Z,101194.16
2022-12-20T19:39:17.737Z,101193.28
2022-12-20T19:42:25.075Z,101185.31
2022-12-20T19:45:28.307Z,101186.13
2022-12-20T19:48:33.144Z,101195.03
2022-12-20T19:51:36.345Z,101183.53
2022-12-20T19:54:40.695Z,101184.41
2022-12-20T19:57:43.527Z,101187.06
2022-12-20T20:00:48.387Z,101176.44
2022-12-20T20:03:51.296Z,101180.00
2022-12-20T20:06:54.174Z,101184.44
2022-12-20T20:09:58.380Z,101180.00
2022-12-20T20:13:01.251Z,101185.31
2022-12-20T20:16:05.131Z,101190.63
2022-12-20T20:19:08.052Z,101189.75
2022-12-20T20:22:11.341Z,101198.59
2022-12-20T20:25:15.975Z,101199.47
2022-12-20T20:28:18.899Z,101190.63
2022-12-20T20:31:23.011Z,101186.19
2022-12-20T20:34:25.856Z,101191.56
2022-12-20T20:37:28.715Z,101188.91
2022-12-20T20:40:33.282Z,101185.31
2022-12-20T20:43:37.662Z,101191.56
2022-12-20T20:46:40.808Z,101188.91
2022-12-20T20:49:43.693Z,101166.78
2022-12-20T20:52:46.511Z,101180.94
2022-12-20T20:55:50.962Z,101170.31
2022-12-20T20:58:57.680Z,101170.31
2022-12-20T21:02:04.274Z,101177.34
2022-12-20T21:05:59.215Z,101169.38
2022-12-20T21:08:30.592Z,101172.03
2022-12-20T21:11:36.515Z,101175.56
2022-12-20T21:15:20.018Z,101174.69
2022-12-20T21:18:02.346Z,101168.50
2022-12-20T21:21:10.491Z,101169.38
2022-12-20T21:24:13.352Z,101157.03
2022-12-20T21:27:17.611Z,101157.88
2022-12-20T21:30:20.951Z,101158.75
2022-12-20T21:33:23.840Z,101153.44
2022-12-20T21:36:27.492Z,101164.06
2022-12-20T21:39:30.338Z,101158.75
2022-12-20T21:42:34.517Z,101156.09
2022-12-20T21:45:37.400Z,101153.44
2022-12-20T21:48:40.804Z,101165.84
2022-12-20T21:51:43.632Z,101155.22
2022-12-20T21:54:46.551Z,101157.03
2022-12-20T21:57:50.772Z,101160.53
2022-12-20T22:00:55.579Z,101151.72
2022-12-20T22:04:00.541Z,101157.88
2022-12-20T22:07:03.344Z,101153.44
2022-12-20T22:10:06.807Z,101145.47
2022-12-20T22:13:12.005Z,101153.44
2022-12-20T22:16:16.522Z,101146.34
2022-12-20T22:19:19.681Z,101143.69
2022-12-20T22:22:22.614Z,101149.00
2022-12-20T22:25:25.556Z,101151.72
2022-12-20T22:28:29.940Z,101149.00
2022-12-20T22:31:33.214Z,101145.47
2022-12-20T22:34:36.161Z,101144.59
2022-12-20T22:37:39.028Z,101153.44
2022-12-20T22:40:41.889Z,101142.81
2022-12-20T22:43:47.449Z,101141.91
2022-12-20T22:46:50.295Z,101133.94
2022-12-20T22:49:53.093Z,101133.88
2022-12-20T22:52:55.915Z,101127.69
2022-12-20T22:55:58.815Z,101131.22
2022-12-20T22:59:03.186Z,101130.34
2022-12-20T23:02:06.238Z,101122.38
2022-12-20T23:05:10.388Z,101118.84
2022-12-20T23:08:13.262Z,101118.00
2022-12-20T23:11:36.710Z,101110.03
2022-12-20T23:15:03.649Z,101115.34
2022-12-20T23:18:07.165Z,101109.09
2022-12-20T23:21:27.503Z,101114.41
2022-12-20T23:24:30.439Z,101108.22
2022-12-20T23:27:33.667Z,101116.19
2022-12-20T23:30:37.891Z,101121.47
2022-12-20T23:33:40.843Z,101111.75
2022-12-20T23:36:43.709Z,101102.91
2022-12-20T23:39:46.966Z,101107.38
2022-12-20T23:42:49.880Z,101115.34
2022-12-20T23:45:54.119Z,101116.25
2022-12-20T23:48:57.215Z,101110.94
2022-12-20T23:52:00.024Z,101108.34
2022-12-20T23:55:02.844Z,101117.19
2022-12-20T23:58:05.744Z,101110.06
